sensor_id;sensor_type;location;lat;lon;timestamp;pressure;altitude;pressure_sealevel;temperature;humidity
66273;BME280;58450;52.150;4.466;2023-02-16T00:01:43;102306.13;;;6.58;100.00
66273;BME280;58450;52.150;4.466;2023-02-16T00:04:17;102315.38;;;6.54;100.00
66273;BME280;58450;52.150;4.466;2023-02-16T00:06:47;102306.50;;;6.53;100.00
66273;BME280;58450;52.150;4.466;2023-02-16T00:09:16;102312.09;;;6.50;100.00
66273;BME280;58450;52.150;4.466;2023-02-16T00:11:44;102305.03;;;6.49;100.00
66273;BME280;58450;52.150;4.466;2023-02-16T00:14:32;102300.91;;;6.45;100.00
66273;BME280;58450;52.150;4.466;2023-02-16T00:17:01;102307.47;;;6.41;100.00
66273;BME280;58450;52.150;4.466;2023-02-16T00:19:33;102296.06;;;6.39;100.00
66273;BME280;58450;52.150;4.466;2023-02-16T00:22:04;102295.69;;;6.43;100.00
66273;BME280;58450;52.150;4.466;2023-02-16T00:24:33;102294.09;;;6.41;100.00
66273;BME280;58450;52.150;4.466;2023-02-16T00:27:00;102292.28;;;6.41;100.00
66273;BME280;58450;52.150;4.466;2023-02-16T00:29:30;102297.88;;;6.38;100.00
66273;BME280;58450;52.150;4.466;2023-02-16T00:32:02;102304.94;;;6.39;100.00
66273;BME280;58450;52.150;4.466;2023-02-16T00:34:34;102310.41;;;6.38;100.00
66273;BME280;58450;52.150;4.466;2023-02-16T00:37:04;102293.75;;;6.34;100.00
66273;BME280;58450;52.150;4.466;2023-02-16T00:39:35;102298.25;;;6.33;100.00
66273;BME280;58450;52.150;4.466;2023-02-16T00:42:05;102295.72;;;6.32;100.00
66273;BME280;58450;52.150;4.466;2023-02-16T00:44:40;102295.81;;;6.30;100.00
66273;BME280;58450;52.150;4.466;2023-02-16T00:47:16;102280.63;;;6.31;100.00
66273;BME280;58450;52.150;4.466;2023-02-16T00:49:49;102287.69;;;6.32;100.00
66273;BME280;58450;52.150;4.466;2023-02-16T00:52:31;102284.63;;;6.36;100.00
66273;BME280;58450;52.150;4.466;2023-02-16T00:55:02;102289.00;;;6.38;100.00
66273;BME280;58450;52.150;4.466;2023-02-16T00:57:33;102295.47;;;6.35;100.00
66273;BME280;58450;52.150;4.466;2023-02-16T01:00:07;102293.13;;;6.42;100.00
66273;BME280;58450;52.150;4.466;2023-02-16T01:02:42;102296.44;;;6.45;100.00
66273;BME280;58450;52.150;4.466;2023-02-16T01:05:12;102289.63;;;6.41;100.00
66273;BME280;58450;52.150;4.466;2023-02-16T01:07:40;102294.72;;;6.44;100.00
66273;BME280;58450;52.150;4.466;2023-02-16T01:10:27;102285.84;;;6.44;100.00
66273;BME280;58450;52.150;4.466;2023-02-16T01:13:13;102284.88;;;6.45;100.00
66273;BME280;58450;52.150;4.466;2023-02-16T01:15:42;102284.63;;;6.48;100.00
66273;BME280;58450;52.150;4.466;2023-02-16T01:18:12;102285.47;;;6.48;100.00
66273;BME280;58450;52.150;4.466;2023-02-16T01:20:42;102278.03;;;6.52;100.00
66273;BME280;58450;52.150;4.466;2023-02-16T01:23:10;102282.31;;;6.55;100.00
66273;BME280;58450;52.150;4.466;2023-02-16T01:25:39;102278.19;;;6.50;100.00
66273;BME280;58450;52.150;4.466;2023-02-16T01:28:15;102280.97;;;6.49;100.00
66273;BME280;58450;52.150;4.466;2023-02-16T01:30:46;102278.44;;;6.47;100.00
66273;BME280;58450;52.150;4.466;2023-02-16T01:33:14;102280.97;;;6.49;100.00
66273;BME280;58450;52.150;4.466;2023-02-16T01:35:43;102270.88;;;6.53;100.00
66273;BME280;58450;52.150;4.466;2023-02-16T01:38:15;102282.66;;;6.50;100.00
66273;BME280;58450;52.150;4.466;2023-02-16T01:40:50;102277.78;;;6.55;100.00
66273;BME280;58450;52.150;4.466;2023-02-16T01:43:26;102276.03;;;6.77;100.00
66273;BME280;58450;52.150;4.466;2023-02-16T01:46:02;102276.06;;;6.98;100.00
66273;BME280;58450;52.150;4.466;2023-02-16T01:48:37;102279.47;;;7.00;100.00
66273;BME280;58450;52.150;4.466;2023-02-16T01:51:11;102277.19;;;6.95;100.00
66273;BME280;58450;52.150;4.466;2023-02-16T01:53:49;102275.72;;;7.03;100.00
66273;BME280;58450;52.150;4.466;2023-02-16T01:56:27;102268.78;;;7.00;100.00
66273;BME280;58450;52.150;4.466;2023-02-16T01:59:04;102262.59;;;7.00;100.00
66273;BME280;58450;52.150;4.466;2023-02-16T02:01:43;102257.69;;;7.05;100.00
66273;BME280;58450;52.150;4.466;2023-02-16T02:04:25;102265.66;;;7.16;100.00
66273;BME280;58450;52.150;4.466;2023-02-16T02:07:20;102261.78;;;7.09;100.00
66273;BME280;58450;52.150;4.466;2023-02-16T02:10:00;102254.31;;;7.24;100.00
66273;BME280;58450;52.150;4.466;2023-02-16T02:12:36;102261.00;;;6.97;100.00
66273;BME280;58450;52.150;4.466;2023-02-16T02:15:12;102255.81;;;6.84;100.00
66273;BME280;58450;52.150;4.466;2023-02-16T02:17:43;102260.47;;;6.82;100.00
66273;BME280;58450;52.150;4.466;2023-02-16T02:20:15;102251.00;;;6.99;100.00
66273;BME280;58450;52.150;4.466;2023-02-16T02:23:22;102242.63;;;7.04;100.00
66273;BME280;58450;52.150;4.466;2023-02-16T02:29:23;102231.31;;;7.21;100.00
66273;BME280;58450;52.150;4.466;2023-02-16T02:32:17;102230.59;;;7.19;100.00
66273;BME280;58450;52.150;4.466;2023-02-16T02:35:03;102213.16;;;7.25;100.00
66273;BME280;58450;52.150;4.466;2023-02-16T02:37:47;102215.56;;;7.28;100.00
66273;BME280;58450;52.150;4.466;2023-02-16T02:40:29;102229.53;;;7.10;100.00
66273;BME280;58450;52.150;4.466;2023-02-16T02:43:13;102221.91;;;7.06;100.00
66273;BME280;58450;52.150;4.466;2023-02-16T02:45:48;102218.38;;;7.05;100.00
66273;BME280;58450;52.150;4.466;2023-02-16T02:48:20;102225.88;;;7.12;100.00
66273;BME280;58450;52.150;4.466;2023-02-16T02:50:50;102223.59;;;7.07;100.00
66273;BME280;58450;52.150;4.466;2023-02-16T02:53:41;102217.91;;;7.00;100.00
66273;BME280;58450;52.150;4.466;2023-02-16T02:56:15;102213.53;;;6.99;100.00
66273;BME280;58450;52.150;4.466;2023-02-16T02:59:05;102219.41;;;6.93;100.00
66273;BME280;58450;52.150;4.466;2023-02-16T03:01:58;102217.59;;;6.93;100.00
66273;BME280;58450;52.150;4.466;2023-02-16T03:04:30;102220.63;;;6.89;100.00
66273;BME280;58450;52.150;4.466;2023-02-16T03:07:00;102219.66;;;6.90;100.00
66273;BME280;58450;52.150;4.466;2023-02-16T03:09:30;102209.22;;;6.87;100.00
66273;BME280;58450;52.150;4.466;2023-02-16T03:11:59;102209.94;;;6.89;100.00
66273;BME280;58450;52.150;4.466;2023-02-16T03:14:51;102205.06;;;6.94;100.00
66273;BME280;58450;52.150;4.466;2023-02-16T03:17:29;102201.13;;;6.98;100.00
66273;BME280;58450;52.150;4.466;2023-02-16T03:20:19;102195.94;;;6.97;100.00
66273;BME280;58450;52.150;4.466;2023-02-16T03:23:05;102193.50;;;6.93;100.00
66273;BME280;58450;52.150;4.466;2023-02-16T03:25:52;102198.66;;;7.06;100.00
66273;BME280;58450;52.150;4.466;2023-02-16T03:28:39;102206.16;;;7.13;100.00
66273;BME280;58450;52.150;4.466;2023-02-16T03:31:32;102204.72;;;7.08;100.00
66273;BME280;58450;52.150;4.466;2023-02-16T03:34:03;102204.59;;;7.10;100.00
66273;BME280;58450;52.150;4.466;2023-02-16T03:36:34;102206.13;;;7.03;100.00
66273;BME280;58450;52.150;4.466;2023-02-16T03:39:06;102199.69;;;7.15;100.00
66273;BME280;58450;52.150;4.466;2023-02-16T03:41:38;102196.69;;;7.08;100.00
66273;BME280;58450;52.150;4.466;2023-02-16T03:44:09;102187.16;;;7.16;100.00
66273;BME280;58450;52.150;4.466;2023-02-16T03:46:38;102202.78;;;7.10;100.00
66273;BME280;58450;52.150;4.466;2023-02-16T03:49:05;102203.19;;;7.06;100.00
66273;BME280;58450;52.150;4.466;2023-02-16T03:51:33;102197.53;;;7.09;100.00
66273;BME280;58450;52.150;4.466;2023-02-16T03:54:00;102203.97;;;6.97;100.00
66273;BME280;58450;52.150;4.466;2023-02-16T03:56:28;102201.59;;;7.03;100.00
66273;BME280;58450;52.150;4.466;2023-02-16T03:58:55;102199.63;;;7.05;100.00
66273;BME280;58450;52.150;4.466;2023-02-16T04:01:23;102204.69;;;6.99;100.00
66273;BME280;58450;52.150;4.466;2023-02-16T04:03:53;102205.41;;;7.01;100.00
66273;BME280;58450;52.150;4.466;2023-02-16T04:06:20;102204.53;;;7.00;100.00
66273;BME280;58450;52.150;4.466;2023-02-16T04:08:48;102199.69;;;6.94;100.00
66273;BME280;58450;52.150;4.466;2023-02-16T04:11:15;102204.31;;;6.92;100.00
66273;BME280;58450;52.150;4.466;2023-02-16T04:14:00;102206.03;;;6.93;100.00
66273;BME280;58450;52.150;4.466;2023-02-16T04:16:28;102201.84;;;7.00;100.00
66273;BME280;58450;52.150;4.466;2023-02-16T04:18:57;102203.81;;;6.98;100.00
66273;BME280;58450;52.150;4.466;2023-02-16T04:21:24;102197.94;;;7.04;100.00
66273;BME280;58450;52.150;4.466;2023-02-16T04:23:52;102194.28;;;7.05;100.00
66273;BME280;58450;52.150;4.466;2023-02-16T04:26:19;102195.72;;;7.09;100.00
66273;BME280;58450;52.150;4.466;2023-02-16T04:28:47;102191.19;;;7.10;100.00
66273;BME280;58450;52.150;4.466;2023-02-16T04:31:14;102184.75;;;7.13;100.00
66273;BME280;58450;52.150;4.466;2023-02-16T04:33:42;102182.44;;;7.08;100.00
66273;BME280;58450;52.150;4.466;2023-02-16T04:36:11;102191.28;;;7.20;100.00
66273;BME280;58450;52.150;4.466;2023-02-16T04:38:38;102197.00;;;7.15;100.00
66273;BME280;58450;52.150;4.466;2023-02-16T04:41:06;102195.47;;;7.13;100.00
66273;BME280;58450;52.150;4.466;2023-02-16T04:43:33;102180.94;;;7.15;100.00
66273;BME280;58450;52.150;4.466;2023-02-16T04:46:01;102183.16;;;7.10;100.00
66273;BME280;58450;52.150;4.466;2023-02-16T04:48:29;102182.53;;;7.18;100.00
66273;BME280;58450;52.150;4.466;2023-02-16T04:50:56;102179.25;;;7.14;100.00
66273;BME280;58450;52.150;4.466;2023-02-16T04:53:25;102177.28;;;7.16;100.00
66273;BME280;58450;52.150;4.466;2023-02-16T04:55:52;102173.25;;;7.22;100.00
66273;BME280;58450;52.150;4.466;2023-02-16T04:58:20;102174.50;;;7.18;100.00
66273;BME280;58450;52.150;4.466;2023-02-16T05:00:48;102164.78;;;7.17;100.00
66273;BME280;58450;52.150;4.466;2023-02-16T05:03:15;102174.03;;;7.13;100.00
66273;BME280;58450;52.150;4.466;2023-02-16T05:05:43;102166.84;;;7.13;100.00
66273;BME280;58450;52.150;4.466;2023-02-16T05:08:10;102177.56;;;7.13;100.00
66273;BME280;58450;52.150;4.466;2023-02-16T05:10:41;102176.72;;;7.13;100.00
66273;BME280;58450;52.150;4.466;2023-02-16T05:13:09;102169.66;;;7.12;100.00
66273;BME280;58450;52.150;4.466;2023-02-16T05:15:56;102182.75;;;7.05;100.00
66273;BME280;58450;52.150;4.466;2023-02-16T05:18:24;102179.41;;;7.13;100.00
66273;BME280;58450;52.150;4.466;2023-02-16T05:20:51;102182.03;;;7.03;100.00
66273;BME280;58450;52.150;4.466;2023-02-16T05:23:36;102170.50;;;7.12;100.00
66273;BME280;58450;52.150;4.466;2023-02-16T05:26:05;102174.31;;;7.09;100.00
66273;BME280;58450;52.150;4.466;2023-02-16T05:28:32;102165.09;;;7.02;100.00
66273;BME280;58450;52.150;4.466;2023-02-16T05:31:00;102160.63;;;7.03;100.00
66273;BME280;58450;52.150;4.466;2023-02-16T05:33:27;102166.81;;;7.03;100.00
66273;BME280;58450;52.150;4.466;2023-02-16T05:35:55;102176.66;;;7.03;100.00
66273;BME280;58450;52.150;4.466;2023-02-16T05:38:22;102179.47;;;7.01;100.00
66273;BME280;58450;52.150;4.466;2023-02-16T05:40:51;102177.09;;;7.08;100.00
66273;BME280;58450;52.150;4.466;2023-02-16T05:43:20;102169.66;;;7.12;100.00
66273;BME280;58450;52.150;4.466;2023-02-16T05:45:47;102171.38;;;7.13;100.00
66273;BME280;58450;52.150;4.466;2023-02-16T05:48:15;102175.47;;;7.17;100.00
66273;BME280;58450;52.150;4.466;2023-02-16T05:50:43;102171.69;;;7.19;100.00
66273;BME280;58450;52.150;4.466;2023-02-16T05:53:10;102157.31;;;7.20;100.00
66273;BME280;58450;52.150;4.466;2023-02-16T05:55:38;102169.72;;;7.21;100.00
66273;BME280;58450;52.150;4.466;2023-02-16T05:58:05;102175.22;;;7.20;100.00
66273;BME280;58450;52.150;4.466;2023-02-16T06:00:34;102181.03;;;7.25;100.00
66273;BME280;58450;52.150;4.466;2023-02-16T06:03:03;102175.22;;;7.20;100.00
66273;BME280;58450;52.150;4.466;2023-02-16T06:05:30;102174.63;;;7.16;100.00
66273;BME280;58450;52.150;4.466;2023-02-16T06:07:58;102177.69;;;7.12;100.00
66273;BME280;58450;52.150;4.466;2023-02-16T06:10:25;102183.63;;;7.15;100.00
66273;BME280;58450;52.150;4.466;2023-02-16T06:12:53;102170.13;;;7.17;100.00
66273;BME280;58450;52.150;4.466;2023-02-16T06:15:21;102183.09;;;7.21;100.00
66273;BME280;58450;52.150;4.466;2023-02-16T06:17:49;102188.88;;;7.17;100.00
66273;BME280;58450;52.150;4.466;2023-02-16T06:20:17;102189.31;;;7.22;100.00
66273;BME280;58450;52.150;4.466;2023-02-16T06:22:45;102178.91;;;7.29;100.00
66273;BME280;58450;52.150;4.466;2023-02-16T06:25:13;102186.56;;;7.33;100.00
66273;BME280;58450;52.150;4.466;2023-02-16T06:27:40;102182.84;;;7.46;100.00
66273;BME280;58450;52.150;4.466;2023-02-16T06:30:08;102185.13;;;7.29;100.00
66273;BME280;58450;52.150;4.466;2023-02-16T06:32:37;102174.88;;;7.34;100.00
66273;BME280;58450;52.150;4.466;2023-02-16T06:35:06;102184.69;;;7.24;100.00
66273;BME280;58450;52.150;4.466;2023-02-16T06:37:34;102188.34;;;7.23;100.00
66273;BME280;58450;52.150;4.466;2023-02-16T06:40:02;102195.97;;;7.28;100.00
66273;BME280;58450;52.150;4.466;2023-02-16T06:42:30;102190.09;;;7.34;100.00
66273;BME280;58450;52.150;4.466;2023-02-16T06:44:58;102200.69;;;7.35;100.00
66273;BME280;58450;52.150;4.466;2023-02-16T06:47:25;102205.59;;;7.30;100.00
66273;BME280;58450;52.150;4.466;2023-02-16T06:49:53;102196.16;;;7.36;100.00
66273;BME280;58450;52.150;4.466;2023-02-16T06:52:22;102201.06;;;7.31;100.00
66273;BME280;58450;52.150;4.466;2023-02-16T06:54:50;102199.97;;;7.33;100.00
66273;BME280;58450;52.150;4.466;2023-02-16T06:57:17;102199.09;;;7.33;100.00
66273;BME280;58450;52.150;4.466;2023-02-16T06:59:45;102205.31;;;7.33;100.00
66273;BME280;58450;52.150;4.466;2023-02-16T07:02:12;102205.63;;;7.40;100.00
66273;BME280;58450;52.150;4.466;2023-02-16T07:04:40;102209.97;;;7.31;100.00
66273;BME280;58450;52.150;4.466;2023-02-16T07:07:08;102201.69;;;7.44;100.00
66273;BME280;58450;52.150;4.466;2023-02-16T07:09:37;102205.88;;;7.37;100.00
66273;BME280;58450;52.150;4.466;2023-02-16T07:12:05;102203.13;;;7.48;100.00
66273;BME280;58450;52.150;4.466;2023-02-16T07:14:33;102206.34;;;7.42;100.00
66273;BME280;58450;52.150;4.466;2023-02-16T07:17:00;102211.16;;;7.48;100.00
66273;BME280;58450;52.150;4.466;2023-02-16T07:19:29;102214.00;;;7.47;100.00
66273;BME280;58450;52.150;4.466;2023-02-16T07:21:58;102217.78;;;7.44;100.00
66273;BME280;58450;52.150;4.466;2023-02-16T07:24:26;102221.31;;;7.45;100.00
66273;BME280;58450;52.150;4.466;2023-02-16T07:26:55;102231.22;;;7.54;100.00
66273;BME280;58450;52.150;4.466;2023-02-16T07:29:23;102226.41;;;7.48;100.00
66273;BME280;58450;52.150;4.466;2023-02-16T07:31:50;102225.09;;;7.42;100.00
66273;BME280;58450;52.150;4.466;2023-02-16T07:34:18;102223.13;;;7.44;100.00
66273;BME280;58450;52.150;4.466;2023-02-16T07:36:46;102230.22;;;7.55;100.00
66273;BME280;58450;52.150;4.466;2023-02-16T07:39:13;102233.84;;;7.44;100.00
66273;BME280;58450;52.150;4.466;2023-02-16T07:41:41;102232.59;;;7.48;100.00
66273;BME280;58450;52.150;4.466;2023-02-16T07:44:10;102240.19;;;7.43;100.00
66273;BME280;58450;52.150;4.466;2023-02-16T07:46:37;102247.50;;;7.41;100.00
66273;BME280;58450;52.150;4.466;2023-02-16T07:49:05;102251.66;;;7.55;100.00
66273;BME280;58450;52.150;4.466;2023-02-16T07:51:33;102249.66;;;7.47;100.00
66273;BME280;58450;52.150;4.466;2023-02-16T07:54:00;102248.69;;;7.48;100.00
66273;BME280;58450;52.150;4.466;2023-02-16T07:56:29;102247.16;;;7.56;100.00
66273;BME280;58450;52.150;4.466;2023-02-16T07:58:59;102253.69;;;7.63;100.00
66273;BME280;58450;52.150;4.466;2023-02-16T08:01:29;102254.97;;;7.68;100.00
66273;BME280;58450;52.150;4.466;2023-02-16T08:03:58;102255.13;;;7.67;100.00
66273;BME280;58450;52.150;4.466;2023-02-16T08:06:25;102261.66;;;7.74;100.00
66273;BME280;58450;52.150;4.466;2023-02-16T08:08:53;102260.75;;;7.64;100.00
66273;BME280;58450;52.150;4.466;2023-02-16T08:11:22;102267.41;;;7.69;100.00
66273;BME280;58450;52.150;4.466;2023-02-16T08:13:51;102264.34;;;7.53;100.00
66273;BME280;58450;52.150;4.466;2023-02-16T08:16:21;102256.03;;;7.56;100.00
66273;BME280;58450;52.150;4.466;2023-02-16T08:18:51;102256.97;;;7.45;100.00
66273;BME280;58450;52.150;4.466;2023-02-16T08:21:23;102256.03;;;7.56;100.00
66273;BME280;58450;52.150;4.466;2023-02-16T08:23:54;102261.84;;;7.61;100.00
66273;BME280;58450;52.150;4.466;2023-02-16T08:26:25;102266.38;;;7.61;100.00
66273;BME280;58450;52.150;4.466;2023-02-16T08:28:56;102277.00;;;7.51;100.00
66273;BME280;58450;52.150;4.466;2023-02-16T08:31:26;102261.81;;;7.51;100.00
66273;BME280;58450;52.150;4.466;2023-02-16T08:33:58;102246.19;;;7.57;100.00
66273;BME280;58450;52.150;4.466;2023-02-16T08:36:29;102250.69;;;7.56;100.00
66273;BME280;58450;52.150;4.466;2023-02-16T08:38:59;102249.50;;;7.70;100.00
66273;BME280;58450;52.150;4.466;2023-02-16T08:41:30;102266.75;;;7.77;100.00
66273;BME280;58450;52.150;4.466;2023-02-16T08:44:00;102263.28;;;7.87;100.00
66273;BME280;58450;52.150;4.466;2023-02-16T08:46:29;102272.41;;;7.84;100.00
66273;BME280;58450;52.150;4.466;2023-02-16T08:49:00;102253.56;;;7.95;100.00
66273;BME280;58450;52.150;4.466;2023-02-16T08:51:30;102258.34;;;7.92;100.00
66273;BME280;58450;52.150;4.466;2023-02-16T08:54:01;102251.88;;;7.94;100.00
66273;BME280;58450;52.150;4.466;2023-02-16T08:56:32;102256.69;;;8.01;100.00
66273;BME280;58450;52.150;4.466;2023-02-16T08:59:01;102252.28;;;7.90;100.00
66273;BME280;58450;52.150;4.466;2023-02-16T09:01:28;102242.47;;;7.79;100.00
66273;BME280;58450;52.150;4.466;2023-02-16T09:03:58;102244.09;;;7.91;100.00
66273;BME280;58450;52.150;4.466;2023-02-16T09:06:26;102244.81;;;7.93;100.00
66273;BME280;58450;52.150;4.466;2023-02-16T09:08:55;102249.63;;;7.99;100.00
66273;BME280;58450;52.150;4.466;2023-02-16T09:11:24;102254.03;;;8.10;100.00
66273;BME280;58450;52.150;4.466;2023-02-16T09:13:51;102251.59;;;7.97;100.00
66273;BME280;58450;52.150;4.466;2023-02-16T09:16:21;102257.06;;;7.96;100.00
66273;BME280;58450;52.150;4.466;2023-02-16T09:18:50;102258.47;;;7.90;100.00
66273;BME280;58450;52.150;4.466;2023-02-16T09:21:22;102262.50;;;8.06;100.00
66273;BME280;58450;52.150;4.466;2023-02-16T09:23:53;102252.88;;;8.03;100.00
66273;BME280;58450;52.150;4.466;2023-02-16T09:26:23;102253.44;;;8.38;100.00
66273;BME280;58450;52.150;4.466;2023-02-16T09:28:52;102254.53;;;8.35;100.00
66273;BME280;58450;52.150;4.466;2023-02-16T09:31:21;102257.91;;;8.37;100.00
66273;BME280;58450;52.150;4.466;2023-02-16T09:33:54;102254.19;;;8.50;100.00
66273;BME280;58450;52.150;4.466;2023-02-16T09:36:25;102260.56;;;8.68;100.00
66273;BME280;58450;52.150;4.466;2023-02-16T09:38:53;102245.41;;;8.57;100.00
66273;BME280;58450;52.150;4.466;2023-02-16T09:41:29;102239.94;;;8.59;100.00
66273;BME280;58450;52.150;4.466;2023-02-16T09:44:11;102240.06;;;8.67;100.00
66273;BME280;58450;52.150;4.466;2023-02-16T09:46:50;102235.38;;;8.60;100.00
66273;BME280;58450;52.150;4.466;2023-02-16T09:49:26;102246.56;;;8.65;100.00
66273;BME280;58450;52.150;4.466;2023-02-16T09:52:03;102242.88;;;8.66;100.00
66273;BME280;58450;52.150;4.466;2023-02-16T09:54:45;102244.16;;;8.62;100.00
66273;BME280;58450;52.150;4.466;2023-02-16T09:57:23;102247.13;;;8.78;100.00
66273;BME280;58450;52.150;4.466;2023-02-16T10:00:08;102250.81;;;8.77;100.00
66273;BME280;58450;52.150;4.466;2023-02-16T10:02:51;102241.91;;;8.86;100.00
66273;BME280;58450;52.150;4.466;2023-02-16T10:05:28;102235.84;;;8.84;100.00
66273;BME280;58450;52.150;4.466;2023-02-16T10:08:03;102222.25;;;8.86;100.00
66273;BME280;58450;52.150;4.466;2023-02-16T10:10:42;102238.53;;;9.04;100.00
66273;BME280;58450;52.150;4.466;2023-02-16T10:13:21;102235.53;;;8.97;100.00
66273;BME280;58450;52.150;4.466;2023-02-16T10:15:58;102227.22;;;9.10;100.00
66273;BME280;58450;52.150;4.466;2023-02-16T10:18:30;102226.91;;;9.04;100.00
66273;BME280;58450;52.150;4.466;2023-02-16T10:21:02;102232.44;;;9.22;100.00
66273;BME280;58450;52.150;4.466;2023-02-16T10:23:43;102233.09;;;9.34;100.00
66273;BME280;58450;52.150;4.466;2023-02-16T10:26:17;102236.34;;;9.37;100.00
66273;BME280;58450;52.150;4.466;2023-02-16T10:28:52;102235.03;;;9.51;100.00
66273;BME280;58450;52.150;4.466;2023-02-16T10:31:27;102223.56;;;9.59;100.00
66273;BME280;58450;52.150;4.466;2023-02-16T10:34:11;102228.63;;;9.62;100.00
66273;BME280;58450;52.150;4.466;2023-02-16T10:37:00;102218.59;;;9.64;100.00
66273;BME280;58450;52.150;4.466;2023-02-16T10:39:45;102219.69;;;9.71;100.00
66273;BME280;58450;52.150;4.466;2023-02-16T10:42:23;102222.63;;;9.78;100.00
66273;BME280;58450;52.150;4.466;2023-02-16T10:45:05;102223.53;;;9.97;100.00
66273;BME280;58450;52.150;4.466;2023-02-16T10:47:47;102230.75;;;10.24;100.00
66273;BME280;58450;52.150;4.466;2023-02-16T10:50:20;102226.59;;;10.12;100.00
66273;BME280;58450;52.150;4.466;2023-02-16T10:52:51;102235.09;;;10.07;100.00
66273;BME280;58450;52.150;4.466;2023-02-16T10:55:23;102236.53;;;10.39;100.00
66273;BME280;58450;52.150;4.466;2023-02-16T10:57:54;102235.63;;;10.39;100.00
66273;BME280;58450;52.150;4.466;2023-02-16T11:00:29;102223.28;;;10.18;100.00
66273;BME280;58450;52.150;4.466;2023-02-16T11:03:11;102211.81;;;10.16;100.00
66273;BME280;58450;52.150;4.466;2023-02-16T11:05:40;102220.06;;;10.14;100.00
66273;BME280;58450;52.150;4.466;2023-02-16T11:08:09;102226.75;;;10.28;100.00
66273;BME280;58450;52.150;4.466;2023-02-16T11:10:45;102222.97;;;10.49;100.00
66273;BME280;58450;52.150;4.466;2023-02-16T11:13:21;102220.75;;;10.81;100.00
66273;BME280;58450;52.150;4.466;2023-02-16T11:15:55;102210.53;;;10.84;100.00
66273;BME280;58450;52.150;4.466;2023-02-16T11:18:31;102225.78;;;10.93;100.00
66273;BME280;58450;52.150;4.466;2023-02-16T11:21:04;102213.50;;;10.99;100.00
66273;BME280;58450;52.150;4.466;2023-02-16T11:23:34;102203.13;;;11.04;100.00
66273;BME280;58450;52.150;4.466;2023-02-16T11:26:06;102201.50;;;11.12;100.00
66273;BME280;58450;52.150;4.466;2023-02-16T11:28:48;102209.59;;;10.93;100.00
66273;BME280;58450;52.150;4.466;2023-02-16T11:31:18;102193.34;;;11.30;100.00
66273;BME280;58450;52.150;4.466;2023-02-16T11:33:56;102193.59;;;11.18;100.00
66273;BME280;58450;52.150;4.466;2023-02-16T11:36:31;102198.53;;;11.49;100.00
66273;BME280;58450;52.150;4.466;2023-02-16T11:39:03;102189.38;;;11.77;100.00
66273;BME280;58450;52.150;4.466;2023-02-16T11:41:36;102195.78;;;11.41;100.00
66273;BME280;58450;52.150;4.466;2023-02-16T11:44:04;102185.22;;;11.56;100.00
66273;BME280;58450;52.150;4.466;2023-02-16T11:46:46;102179.09;;;12.15;100.00
66273;BME280;58450;52.150;4.466;2023-02-16T11:49:21;102182.50;;;12.42;100.00
66273;BME280;58450;52.150;4.466;2023-02-16T11:51:56;102166.81;;;12.29;100.00
66273;BME280;58450;52.150;4.466;2023-02-16T11:54:24;102153.19;;;12.72;100.00
66273;BME280;58450;52.150;4.466;2023-02-16T11:57:05;102173.44;;;11.92;100.00
66273;BME280;58450;52.150;4.466;2023-02-16T11:59:37;102160.25;;;12.32;100.00
66273;BME280;58450;52.150;4.466;2023-02-16T12:02:27;102149.31;;;12.75;100.00
66273;BME280;58450;52.150;4.466;2023-02-16T12:05:24;102155.72;;;12.49;100.00
66273;BME280;58450;52.150;4.466;2023-02-16T12:08:21;102149.28;;;12.41;100.00
66273;BME280;58450;52.150;4.466;2023-02-16T12:11:07;102148.09;;;12.19;100.00
66273;BME280;58450;52.150;4.466;2023-02-16T12:13:53;102150.31;;;11.46;100.00
66273;BME280;58450;52.150;4.466;2023-02-16T12:16:35;102130.03;;;12.20;100.00
66273;BME280;58450;52.150;4.466;2023-02-16T12:19:18;102143.28;;;11.96;100.00
66273;BME280;58450;52.150;4.466;2023-02-16T12:22:01;102141.63;;;12.04;100.00
66273;BME280;58450;52.150;4.466;2023-02-16T12:24:45;102134.91;;;12.16;100.00
66273;BME280;58450;52.150;4.466;2023-02-16T12:27:36;102135.97;;;11.37;100.00
66273;BME280;58450;52.150;4.466;2023-02-16T12:30:22;102146.16;;;11.26;100.00
66273;BME280;58450;52.150;4.466;2023-02-16T12:33:10;102135.56;;;10.98;100.00
66273;BME280;58450;52.150;4.466;2023-02-16T12:36:08;102139.03;;;10.90;100.00
66273;BME280;58450;52.150;4.466;2023-02-16T12:38:57;102130.00;;;10.99;100.00
66273;BME280;58450;52.150;4.466;2023-02-16T12:41:43;102117.88;;;11.30;100.00
66273;BME280;58450;52.150;4.466;2023-02-16T12:44:26;102122.69;;;11.44;100.00
66273;BME280;58450;52.150;4.466;2023-02-16T12:47:03;102126.19;;;11.10;100.00
66273;BME280;58450;52.150;4.466;2023-02-16T12:49:43;102116.03;;;10.96;100.00
66273;BME280;58450;52.150;4.466;2023-02-16T12:52:29;102110.78;;;10.94;100.00
66273;BME280;58450;52.150;4.466;2023-02-16T12:55:14;102097.81;;;10.89;100.00
66273;BME280;58450;52.150;4.466;2023-02-16T12:57:48;102096.25;;;10.87;100.00
66273;BME280;58450;52.150;4.466;2023-02-16T13:00:24;102087.06;;;10.71;100.00
66273;BME280;58450;52.150;4.466;2023-02-16T13:03:12;102089.28;;;10.76;100.00
66273;BME280;58450;52.150;4.466;2023-02-16T13:06:04;102080.97;;;10.87;100.00
66273;BME280;58450;52.150;4.466;2023-02-16T13:08:42;102084.53;;;10.70;100.00
66273;BME280;58450;52.150;4.466;2023-02-16T13:11:19;102077.78;;;10.66;100.00
66273;BME280;58450;52.150;4.466;2023-02-16T13:13:51;102063.94;;;10.87;100.00
66273;BME280;58450;52.150;4.466;2023-02-16T13:16:38;102065.41;;;11.07;100.00
66273;BME280;58450;52.150;4.466;2023-02-16T13:19:12;102067.22;;;10.99;100.00
66273;BME280;58450;52.150;4.466;2023-02-16T13:22:21;102075.00;;;11.10;100.00
66273;BME280;58450;52.150;4.466;2023-02-16T13:25:25;102070.84;;;10.63;100.00